createdAt,value
2023-03-16T00:00:32.921Z,100649.50
2023-03-16T00:03:20.833Z,100657.44
2023-03-16T00:05:51.669Z,100660.09
2023-03-16T00:08:21.479Z,100650.63
2023-03-16T00:10:50.357Z,100655.91
2023-03-16T00:13:23.811Z,100657.72
2023-03-16T00:15:54.103Z,100657.00
2023-03-16T00:18:27.393Z,100667.38
2023-03-16T00:21:02.236Z,100663.91
2023-03-16T00:23:35.682Z,100670.03
2023-03-16T00:26:07.774Z,100668.25
2023-03-16T00:28:37.946Z,100680.50
2023-03-16T00:31:11.907Z,100682.25
2023-03-16T00:33:44.020Z,100674.75
2023-03-16T00:36:13.761Z,100689.50
2023-03-16T00:38:45.236Z,100681.00
2023-03-16T00:41:16.732Z,100689.72
2023-03-16T00:43:46.160Z,100681.97
2023-03-16T00:46:18.502Z,100683.81
2023-03-16T00:48:49.488Z,100682.13
2023-03-16T00:51:19.904Z,100689.09
2023-03-16T00:53:49.095Z,100683.03
2023-03-16T00:56:18.698Z,100690.00
2023-03-16T00:58:47.788Z,100685.69
2023-03-16T01:01:21.915Z,100683.97
2023-03-16T01:03:52.506Z,100681.47
2023-03-16T01:06:22.281Z,100688.44
2023-03-16T01:08:52.422Z,100688.50
2023-03-16T01:11:23.809Z,100691.13
2023-03-16T01:13:54.443Z,100691.22
2023-03-16T01:16:24.298Z,100690.41
2023-03-16T01:18:55.302Z,100693.06
2023-03-16T01:21:25.265Z,100701.81
2023-03-16T01:23:54.861Z,100693.31
2023-03-16T01:26:25.345Z,100698.59
2023-03-16T01:28:55.036Z,100698.56
2023-03-16T01:31:24.748Z,100704.66
2023-03-16T01:33:55.279Z,100703.84
2023-03-16T01:36:28.004Z,100704.75
2023-03-16T01:39:02.350Z,100705.72
2023-03-16T01:41:37.085Z,100706.66
2023-03-16T01:44:06.709Z,100708.41
2023-03-16T01:46:35.933Z,100711.91
2023-03-16T01:49:14.698Z,100711.84
2023-03-16T01:51:51.678Z,100706.66
2023-03-16T01:54:27.575Z,100704.09
2023-03-16T01:57:07.403Z,100704.94
2023-03-16T01:59:44.104Z,100708.47
2023-03-16T02:02:16.686Z,100718.97
2023-03-16T02:04:55.536Z,100715.63
2023-03-16T02:07:28.718Z,100707.91
2023-03-16T02:10:02.489Z,100713.97
2023-03-16T02:12:31.967Z,100714.84
2023-03-16T02:15:03.578Z,100709.75
2023-03-16T02:17:35.738Z,100715.81
2023-03-16T02:20:26.385Z,100714.91
2023-03-16T02:22:56.359Z,100719.25
2023-03-16T02:25:36.027Z,100714.88
2023-03-16T02:28:16.483Z,100711.47
2023-03-16T02:30:49.755Z,100727.94
2023-03-16T02:33:21.356Z,100715.06
2023-03-16T02:35:50.719Z,100721.13
2023-03-16T02:38:19.573Z,100725.50
2023-03-16T02:41:01.100Z,100730.72
2023-03-16T02:43:35.954Z,100738.50
2023-03-16T02:46:21.644Z,100740.28
2023-03-16T02:49:03.081Z,100741.16
2023-03-16T02:51:33.186Z,100743.78
2023-03-16T02:54:02.422Z,100754.09
2023-03-16T02:56:34.482Z,100749.72
2023-03-16T02:59:03.306Z,100748.91
2023-03-16T03:01:36.655Z,100748.94
2023-03-16T03:04:07.048Z,100756.72
2023-03-16T03:06:36.483Z,100761.13
2023-03-16T03:09:07.070Z,100754.25
2023-03-16T03:11:36.302Z,100759.47
2023-03-16T03:14:05.900Z,100763.72
2023-03-16T03:16:37.245Z,100762.88
2023-03-16T03:19:06.237Z,100765.53
2023-03-16T03:21:39.093Z,100763.84
2023-03-16T03:24:10.105Z,100772.53
2023-03-16T03:26:39.691Z,100778.63
2023-03-16T03:29:14.098Z,100775.13
2023-03-16T03:31:44.748Z,100781.28
2023-03-16T03:34:15.618Z,100782.13
2023-03-16T03:36:44.780Z,100786.44
2023-03-16T03:39:13.631Z,100790.72
2023-03-16T03:41:42.971Z,100791.69
2023-03-16T03:44:13.356Z,100791.69
2023-03-16T03:46:44.093Z,100795.97
2023-03-16T03:49:13.328Z,100799.38
2023-03-16T03:51:42.525Z,100795.09
2023-03-16T03:54:18.697Z,100801.19
2023-03-16T03:57:10.069Z,100802.06
2023-03-16T03:59:43.754Z,100808.06
2023-03-16T04:02:32.955Z,100809.00
2023-03-16T04:05:02.154Z,100802.91
2023-03-16T04:07:32.364Z,100807.25
2023-03-16T04:10:08.381Z,100815.09
2023-03-16T04:12:41.630Z,100816.88
2023-03-16T04:15:13.672Z,100821.28
2023-03-16T04:17:56.741Z,100823.84
2023-03-16T04:20:27.623Z,100824.75
2023-03-16T04:22:58.816Z,100823.00
2023-03-16T04:25:30.605Z,100825.63
2023-03-16T04:28:02.127Z,100821.28
2023-03-16T04:30:35.164Z,100827.38
2023-03-16T04:33:22.886Z,100819.59
2023-03-16T04:35:52.332Z,100829.06
2023-03-16T04:38:23.469Z,100824.81
2023-03-16T04:40:57.167Z,100821.47
2023-03-16T04:43:34.381Z,100830.13
2023-03-16T04:46:10.275Z,100836.16
2023-03-16T04:48:41.398Z,100835.28
2023-03-16T04:51:11.264Z,100843.94
2023-03-16T04:53:45.981Z,100844.81
2023-03-16T04:56:23.919Z,100850.00
2023-03-16T04:58:58.641Z,100848.25
2023-03-16T05:01:31.685Z,100854.38
2023-03-16T05:04:05.073Z,100854.34
2023-03-16T05:06:36.778Z,100854.34
2023-03-16T05:09:08.533Z,100856.91
2023-03-16T05:11:40.639Z,100863.78
2023-03-16T05:14:12.500Z,100862.03
2023-03-16T05:17:04.754Z,100853.31
2023-03-16T05:19:36.256Z,100859.34
2023-03-16T05:22:05.258Z,100857.63
2023-03-16T05:24:34.843Z,100858.44
2023-03-16T05:27:04.296Z,100866.19
2023-03-16T05:29:34.445Z,100865.25
2023-03-16T05:32:03.813Z,100873.81
2023-03-16T05:34:35.824Z,100865.13
2023-03-16T05:37:05.135Z,100871.97
2023-03-16T05:39:35.805Z,100875.34
2023-03-16T05:42:05.882Z,100877.91
2023-03-16T05:44:51.179Z,100874.34
2023-03-16T05:47:49.373Z,100874.31
2023-03-16T05:50:21.776Z,100873.41
2023-03-16T05:52:50.712Z,100884.53
2023-03-16T05:55:24.669Z,100878.41
2023-03-16T05:57:58.692Z,100876.56
2023-03-16T06:00:30.155Z,100881.69
2023-03-16T06:03:13.167Z,100881.63
2023-03-16T06:05:43.698Z,100881.50
2023-03-16T06:08:13.332Z,100891.81
2023-03-16T06:10:47.412Z,100890.03
2023-03-16T06:13:17.925Z,100896.84
2023-03-16T06:15:47.152Z,100890.75
2023-03-16T06:18:17.044Z,100895.75
2023-03-16T06:20:49.584Z,100906.88
2023-03-16T06:23:20.356Z,100900.63
2023-03-16T06:25:51.381Z,100899.66
2023-03-16T06:28:24.312Z,100899.47
2023-03-16T06:30:55.896Z,100895.81
2023-03-16T06:33:27.666Z,100902.56
2023-03-16T06:35:58.192Z,100896.25
2023-03-16T06:38:35.409Z,100903.81
2023-03-16T06:41:40.209Z,100898.50
2023-03-16T06:44:09.404Z,100902.69
2023-03-16T06:46:43.847Z,100904.25
2023-03-16T06:49:13.312Z,100904.88
2023-03-16T06:51:44.283Z,100916.75
2023-03-16T06:54:13.626Z,100909.56
2023-03-16T06:56:43.664Z,100914.47
2023-03-16T06:59:13.226Z,100915.97
2023-03-16T07:01:42.415Z,100926.22
2023-03-16T07:04:12.717Z,100931.84
2023-03-16T07:06:44.809Z,100929.81
2023-03-16T07:09:14.968Z,100941.72
2023-03-16T07:11:44.814Z,100937.06
2023-03-16T07:14:13.679Z,100943.66
2023-03-16T07:16:43.821Z,100947.38
2023-03-16T07:19:12.846Z,100946.78
2023-03-16T07:21:42.092Z,100947.81
2023-03-16T07:24:17.564Z,100945.44
2023-03-16T07:26:47.825Z,100945.88
2023-03-16T07:29:25.592Z,100949.13
2023-03-16T07:31:55.464Z,100942.63
2023-03-16T07:34:30.193Z,100947.66
2023-03-16T07:37:01.110Z,100942.25
2023-03-16T07:39:34.343Z,100948.81
2023-03-16T07:42:10.175Z,100944.78
2023-03-16T07:44:51.786Z,100949.56
2023-03-16T07:47:22.145Z,100954.41
2023-03-16T07:49:53.493Z,100950.44
2023-03-16T07:52:23.081Z,100947.19
2023-03-16T07:54:55.257Z,100952.59
2023-03-16T07:57:24.458Z,100953.78
2023-03-16T07:59:53.297Z,100953.59
2023-03-16T08:02:22.901Z,100955.72
2023-03-16T08:04:52.654Z,100954.44
2023-03-16T08:07:22.168Z,100949.66
2023-03-16T08:10:15.386Z,100945.53
2023-03-16T08:12:54.940Z,100951.78
2023-03-16T08:15:25.006Z,100952.75
2023-03-16T08:18:02.422Z,100954.03
2023-03-16T08:20:32.353Z,100949.59
2023-03-16T08:23:01.707Z,100947.94
2023-03-16T08:25:39.494Z,100959.91
2023-03-16T08:28:12.724Z,100951.44
2023-03-16T08:30:48.180Z,100955.75
2023-03-16T08:33:39.764Z,100955.97
2023-03-16T08:36:15.474Z,100958.00
2023-03-16T08:39:03.824Z,100963.50
2023-03-16T08:41:38.207Z,100964.44
2023-03-16T08:44:13.004Z,100964.31
2023-03-16T08:46:42.595Z,100972.47
2023-03-16T08:49:13.678Z,100977.06
2023-03-16T08:51:44.947Z,100977.50
2023-03-16T08:54:16.049Z,100975.59
2023-03-16T08:56:46.299Z,100976.81
2023-03-16T08:59:28.759Z,100987.38
2023-03-16T09:01:58.854Z,100984.06
2023-03-16T09:04:30.005Z,100982.81
2023-03-16T09:07:08.330Z,100988.38
2023-03-16T09:09:39.798Z,100989.31
2023-03-16T09:12:10.554Z,100984.47
2023-03-16T09:14:40.469Z,100983.59
2023-03-16T09:17:11.760Z,100987.06
2023-03-16T09:19:50.973Z,100978.88
2023-03-16T09:22:20.681Z,100981.28
2023-03-16T09:24:51.330Z,100984.72
2023-03-16T09:27:22.502Z,100978.56
2023-03-16T09:29:53.174Z,100985.72
2023-03-16T09:32:22.074Z,100986.94
2023-03-16T09:34:51.720Z,100982.84
2023-03-16T09:37:20.567Z,100985.22
2023-03-16T09:39:50.223Z,100974.59
2023-03-16T09:42:31.255Z,100981.56
2023-03-16T09:45:15.763Z,100983.13
2023-03-16T09:47:48.936Z,100991.59
2023-03-16T09:50:30.276Z,100985.66
2023-03-16T09:53:18.756Z,100989.09
2023-03-16T09:55:55.347Z,100987.94
2023-03-16T09:58:27.225Z,100990.97
2023-03-16T10:01:10.859Z,100988.06
2023-03-16T10:04:03.500Z,100989.88
2023-03-16T10:06:33.209Z,100995.31
2023-03-16T10:09:22.948Z,101002.50
2023-03-16T10:11:58.248Z,100990.22
2023-03-16T10:14:38.605Z,100995.69
2023-03-16T10:17:17.124Z,101008.22
2023-03-16T10:19:53.969Z,100996.63
2023-03-16T10:22:26.518Z,100999.16
2023-03-16T10:25:09.389Z,101011.97
2023-03-16T10:27:42.121Z,101004.16
2023-03-16T10:30:24.917Z,101009.75
2023-03-16T10:32:54.667Z,101015.25
2023-03-16T10:35:46.060Z,101008.78
2023-03-16T10:38:31.104Z,101001.66
2023-03-16T10:41:02.186Z,101006.28
2023-03-16T10:43:32.246Z,101012.47
2023-03-16T10:46:03.312Z,101013.41
2023-03-16T10:48:34.980Z,101011.84
2023-03-16T10:51:10.198Z,101019.94
2023-03-16T10:53:45.648Z,101008.63
2023-03-16T10:56:23.873Z,101014.78
2023-03-16T10:58:54.248Z,101021.13
2023-03-16T11:01:29.389Z,101013.31
2023-03-16T11:04:00.892Z,101014.91
2023-03-16T11:06:32.654Z,101016.78
2023-03-16T11:09:08.960Z,101011.22
2023-03-16T11:11:38.259Z,101006.34
2023-03-16T11:14:15.413Z,101004.53
2023-03-16T11:16:53.378Z,101006.34
2023-03-16T11:19:29.252Z,101001.16
2023-03-16T11:22:05.203Z,101011.13
2023-03-16T11:24:46.700Z,101014.25
2023-03-16T11:27:25.212Z,101011.25
2023-03-16T11:30:09.779Z,101011.69
2023-03-16T11:32:46.386Z,101010.41
2023-03-16T11:35:19.595Z,101006.59
2023-03-16T11:38:06.482Z,101001.66
2023-03-16T11:40:49.281Z,101003.50
2023-03-16T11:43:49.368Z,101002.44
2023-03-16T11:46:24.956Z,101008.72
2023-03-16T11:49:42.195Z,101004.25
2023-03-16T11:52:24.719Z,101009.84
2023-03-16T11:55:07.881Z,100996.56
2023-03-16T11:57:54.968Z,101004.75
2023-03-16T12:00:35.643Z,101003.13
2023-03-16T12:03:34.116Z,101002.59
2023-03-16T12:06:23.789Z,101010.00
2023-03-16T12:09:30.270Z,101001.53
2023-03-16T12:12:12.916Z,101010.78
2023-03-16T12:14:55.517Z,101017.28
2023-03-16T12:17:30.522Z,101007.09
2023-03-16T12:20:07.169Z,101019.19
2023-03-16T12:22:45.207Z,101008.09
2023-03-16T12:25:22.252Z,101012.84
2023-03-16T12:27:55.914Z,101016.03
2023-03-16T12:30:42.557Z,101018.72
2023-03-16T12:33:23.771Z,101018.88
2023-03-16T12:36:03.392Z,101016.94
2023-03-16T12:38:48.712Z,101018.56
2023-03-16T12:41:34.581Z,101015.72
2023-03-16T12:44:17.445Z,101012.63
2023-03-16T12:46:59.392Z,101022.66
2023-03-16T12:49:34.279Z,101021.53
2023-03-16T12:52:07.092Z,101018.72
2023-03-16T12:54:38.066Z,101018.00
2023-03-16T12:57:10.651Z,101019.34
2023-03-16T12:59:43.582Z,101020.31
2023-03-16T13:02:19.630Z,101017.94
2023-03-16T13:04:59.046Z,101028.47
2023-03-16T13:07:32.209Z,101019.91
2023-03-16T13:10:08.919Z,101020.75
2023-03-16T13:12:41.918Z,101020.53
2023-03-16T13:15:29.824Z,101026.03
2023-03-16T13:18:25.007Z,101018.25
2023-03-16T13:21:01.747Z,101023.72
2023-03-16T13:23:58.052Z,101023.03
2023-03-16T13:26:42.193Z,101028.13
2023-03-16T13:29:28.042Z,101022.44
2023-03-16T13:32:00.272Z,101021.69
2023-03-16T13:34:32.381Z,101026.03
2023-03-16T13:37:02.667Z,101019.72
2023-03-16T13:39:33.724Z,101026.19
2023-03-16T13:42:17.915Z,101023.31
2023-03-16T13:44:48.057Z,101031.75
2023-03-16T13:47:20.624Z,101030.50
2023-03-16T13:49:53.445Z,101023.28
2023-03-16T13:52:29.327Z,101030.09
2023-03-16T13:55:01.044Z,101029.06
2023-03-16T13:57:38.273Z,101029.22
2023-03-16T14:00:20.482Z,101026.59
2023-03-16T14:02:55.324Z,101032.47
2023-03-16T14:05:33.231Z,101024.03
2023-03-16T14:08:02.282Z,101027.34
2023-03-16T14:10:36.074Z,101033.09
2023-03-16T14:13:34.170Z,101025.03
2023-03-16T14:16:12.896Z,101030.66
2023-03-16T14:18:46.076Z,101028.50
2023-03-16T14:21:20.712Z,101030.94
2023-03-16T14:23:55.206Z,101044.88
2023-03-16T14:26:25.081Z,101032.97
2023-03-16T14:29:06.380Z,101036.31
2023-03-16T14:31:38.765Z,101037.84
2023-03-16T14:34:22.491Z,101040.91
2023-03-16T14:36:51.563Z,101035.19
2023-03-16T14:39:22.992Z,101035.69
2023-03-16T14:41:53.603Z,101041.13
2023-03-16T14:44:32.026Z,101038.44
2023-03-16T14:47:02.619Z,101035.38
2023-03-16T14:49:34.705Z,101042.91
2023-03-16T14:52:07.629Z,101042.53
2023-03-16T14:54:36.714Z,101034.34
2023-03-16T14:57:07.236Z,101037.94
2023-03-16T14:59:37.502Z,101049.53
2023-03-16T15:02:17.447Z,101044.13
2023-03-16T15:04:48.566Z,101058.50
2023-03-16T15:07:26.739Z,101060.25
2023-03-16T15:10:01.851Z,101056.25
2023-03-16T15:12:30.998Z,101067.38
2023-03-16T15:15:16.659Z,101057.91
2023-03-16T15:17:46.914Z,101058.09
2023-03-16T15:20:18.709Z,101059.81
2023-03-16T15:22:49.736Z,101062.56
2023-03-16T15:25:37.039Z,101067.38
2023-03-16T15:28:15.868Z,101063.97
2023-03-16T15:30:48.245Z,101062.09
2023-03-16T15:33:18.214Z,101055.88
2023-03-16T15:35:50.342Z,101061.13
2023-03-16T15:38:24.200Z,101056.31
2023-03-16T15:40:54.626Z,101056.31
2023-03-16T15:43:27.306Z,101058.81
2023-03-16T15:45:59.984Z,101062.44
2023-03-16T15:48:29.200Z,101058.03
2023-03-16T15:51:01.903Z,101061.78
2023-03-16T15:53:37.761Z,101060.91
2023-03-16T15:56:10.653Z,101066.00
2023-03-16T15:58:45.918Z,101067.66
2023-03-16T16:01:25.473Z,101073.91
2023-03-16T16:03:56.144Z,101076.50
2023-03-16T16:06:25.197Z,101077.34
2023-03-16T16:08:54.334Z,101085.50
2023-03-16T16:11:27.531Z,101090.63
2023-03-16T16:13:59.432Z,101085.41
2023-03-16T16:16:33.219Z,101098.34
2023-03-16T16:19:02.392Z,101093.91
2023-03-16T16:21:31.640Z,101100.41
2023-03-16T16:24:02.276Z,101096.06
2023-03-16T16:26:55.159Z,101100.56
2023-03-16T16:29:27.221Z,101109.38
2023-03-16T16:31:57.553Z,101111.06
2023-03-16T16:34:28.047Z,101113.25
2023-03-16T16:36:58.525Z,101113.06
2023-03-16T16:39:28.141Z,101122.66
2023-03-16T16:41:58.105Z,101127.31
2023-03-16T16:44:34.031Z,101120.72
2023-03-16T16:47:16.962Z,101125.22
2023-03-16T16:49:46.563Z,101132.47
2023-03-16T16:52:18.479Z,101136.94
2023-03-16T16:54:47.745Z,101131.88
2023-03-16T16:57:20.887Z,101135.38
2023-03-16T16:59:50.982Z,101136.25
2023-03-16T17:02:32.135Z,101132.00
2023-03-16T17:05:01.455Z,101150.34
2023-03-16T17:07:30.884Z,101140.78
2023-03-16T17:10:00.090Z,101152.06
2023-03-16T17:12:29.645Z,101148.63
2023-03-16T17:14:58.911Z,101153.16
2023-03-16T17:17:29.252Z,101145.31
2023-03-16T17:19:58.324Z,101141.03
2023-03-16T17:22:30.388Z,101147.13
2023-03-16T17:25:00.474Z,101154.13
2023-03-16T17:27:33.049Z,101163.81
2023-03-16T17:30:03.118Z,101165.72
2023-03-16T17:32:33.896Z,101166.78
2023-03-16T17:35:03.086Z,101161.69
2023-03-16T17:37:32.052Z,101167.22
2023-03-16T17:40:01.581Z,101175.31
2023-03-16T17:42:30.461Z,101177.34
2023-03-16T17:45:00.149Z,101174.13
2023-03-16T17:47:38.498Z,101177.94
2023-03-16T17:50:24.480Z,101174.75
2023-03-16T17:52:54.248Z,101181.16
2023-03-16T17:55:25.032Z,101183.22
2023-03-16T17:57:57.064Z,101184.25
2023-03-16T18:00:31.834Z,101177.63
2023-03-16T18:03:05.633Z,101184.00
2023-03-16T18:05:37.652Z,101183.41
2023-03-16T18:08:17.464Z,101193.09
2023-03-16T18:10:49.621Z,101189.84
2023-03-16T18:13:24.216Z,101187.38
2023-03-16T18:15:55.859Z,101192.69
2023-03-16T18:18:29.130Z,101197.13
2023-03-16T18:21:00.574Z,101197.22
2023-03-16T18:23:33.570Z,101209.31
2023-03-16T18:26:06.824Z,101207.59
2023-03-16T18:28:36.540Z,101205.06
2023-03-16T18:31:08.030Z,101209.47
2023-03-16T18:33:42.460Z,101209.47
2023-03-16T18:36:18.818Z,101217.34
2023-03-16T18:38:50.661Z,101210.56
2023-03-16T18:41:24.772Z,101207.97
2023-03-16T18:43:57.636Z,101214.19
2023-03-16T18:46:30.384Z,101213.38
2023-03-16T18:49:04.090Z,101215.22
2023-03-16T18:51:33.347Z,101213.50
2023-03-16T18:54:03.547Z,101220.50
2023-03-16T18:56:33.035Z,101217.13
2023-03-16T18:59:02.440Z,101223.25
2023-03-16T19:01:37.939Z,101227.59
2023-03-16T19:04:19.838Z,101223.28
2023-03-16T19:06:52.056Z,101223.28
2023-03-16T19:09:23.383Z,101220.72
2023-03-16T19:11:52.857Z,101217.34
2023-03-16T19:14:24.602Z,101223.41
2023-03-16T19:16:56.265Z,101230.28
2023-03-16T19:19:28.002Z,101226.78
2023-03-16T19:22:04.548Z,101231.91
2023-03-16T19:24:42.573Z,101244.00
2023-03-16T19:27:22.487Z,101250.00
2023-03-16T19:29:52.709Z,101247.38
2023-03-16T19:32:24.667Z,101246.47
2023-03-16T19:34:54.904Z,101250.69
2023-03-16T19:37:26.740Z,101257.53
2023-03-16T19:39:56.110Z,101254.84
2023-03-16T19:42:33.696Z,101256.50
2023-03-16T19:45:03.934Z,101262.50
2023-03-16T19:47:36.680Z,101251.19
2023-03-16T19:50:17.584Z,101262.25
2023-03-16T19:52:47.618Z,101258.81
2023-03-16T19:55:39.449Z,101262.19
2023-03-16T19:58:20.996Z,101256.97
2023-03-16T20:00:51.132Z,101264.78
2023-03-16T20:03:20.741Z,101265.66
2023-03-16T20:05:53.746Z,101261.31
2023-03-16T20:08:26.298Z,101269.13
2023-03-16T20:11:08.720Z,101258.66
2023-03-16T20:13:38.534Z,101262.09
2023-03-16T20:16:12.609Z,101263.84
2023-03-16T20:18:42.337Z,101268.19
2023-03-16T20:21:17.729Z,101269.16
2023-03-16T20:23:49.907Z,101265.66
2023-03-16T20:26:23.330Z,101264.88
2023-03-16T20:28:53.422Z,101273.59
2023-03-16T20:31:25.751Z,101268.38
2023-03-16T20:33:56.240Z,101269.22
2023-03-16T20:36:29.174Z,101262.34
2023-03-16T20:38:58.459Z,101274.47
2023-03-16T20:41:32.364Z,101271.03
2023-03-16T20:44:03.233Z,101273.59
2023-03-16T20:46:34.453Z,101269.19
2023-03-16T20:49:03.820Z,101268.25
2023-03-16T20:51:34.042Z,101274.25
2023-03-16T20:54:03.175Z,101272.44
2023-03-16T20:56:32.389Z,101274.13
2023-03-16T20:59:01.641Z,101274.97
2023-03-16T21:01:32.162Z,101275.78
2023-03-16T21:04:01.408Z,101267.16
2023-03-16T21:06:34.493Z,101276.84
2023-03-16T21:09:03.658Z,101283.00
2023-03-16T21:11:37.968Z,101274.53
2023-03-16T21:14:16.616Z,101277.31
2023-03-16T21:16:46.152Z,101277.50
2023-03-16T21:19:17.692Z,101278.50
2023-03-16T21:21:47.954Z,101281.22
2023-03-16T21:24:17.477Z,101287.41
2023-03-16T21:26:47.569Z,101285.06
2023-03-16T21:29:21.975Z,101281.78
2023-03-16T21:31:51.868Z,101279.28
2023-03-16T21:34:27.482Z,101288.03
2023-03-16T21:36:59.348Z,101279.56
2023-03-16T21:39:29.352Z,101290.97
2023-03-16T21:41:58.160Z,101292.84
2023-03-16T21:44:27.293Z,101284.44
2023-03-16T21:46:56.276Z,101293.19
2023-03-16T21:49:25.596Z,101294.19
2023-03-16T21:51:54.619Z,101289.22
2023-03-16T21:54:25.082Z,101290.25
2023-03-16T21:56:53.924Z,101288.59
2023-03-16T21:59:23.912Z,101287.03
2023-03-16T22:02:01.542Z,101286.25
2023-03-16T22:04:31.720Z,101279.38
2023-03-16T22:07:00.547Z,101284.66
2023-03-16T22:09:32.915Z,101280.41
2023-03-16T22:12:01.680Z,101286.56
2023-03-16T22:14:31.044Z,101282.34
2023-03-16T22:16:59.894Z,101288.50
2023-03-16T22:19:29.415Z,101303.28
2023-03-16T22:21:58.615Z,101299.06
2023-03-16T22:24:34.870Z,101297.38
2023-03-16T22:27:04.370Z,101283.63
2023-03-16T22:29:34.514Z,101296.72
2023-03-16T22:32:08.700Z,101294.19
2023-03-16T22:34:45.220Z,101288.19
2023-03-16T22:37:20.310Z,101285.75
2023-03-16T22:39:51.614Z,101282.38
2023-03-16T22:42:35.862Z,101292.81
2023-03-16T22:45:16.942Z,101292.00
2023-03-16T22:47:47.802Z,101288.63
2023-03-16T22:50:18.679Z,101293.81
2023-03-16T22:52:51.236Z,101302.53
2023-03-16T22:55:28.206Z,101297.44
2023-03-16T22:58:12.300Z,101295.75
2023-03-16T23:00:41.638Z,101303.63
2023-03-16T23:03:18.975Z,101312.31
2023-03-16T23:05:48.351Z,101306.31
2023-03-16T23:08:21.178Z,101306.34
2023-03-16T23:10:53.561Z,101306.38
2023-03-16T23:13:27.097Z,101312.56
2023-03-16T23:15:56.948Z,101310.88
2023-03-16T23:18:27.618Z,101312.66
2023-03-16T23:20:57.303Z,101316.16
2023-03-16T23:23:26.131Z,101313.56
2023-03-16T23:25:56.734Z,101319.59
2023-03-16T23:28:26.178Z,101322.19
2023-03-16T23:30:55.537Z,101321.28
2023-03-16T23:33:24.324Z,101318.69
2023-03-16T23:35:53.408Z,101325.63
2023-03-16T23:38:22.408Z,101321.34
2023-03-16T23:40:51.482Z,101329.13
2023-03-16T23:43:21.711Z,101332.56
2023-03-16T23:45:51.249Z,101335.97
2023-03-16T23:48:23.656Z,101337.69
2023-03-16T23:50:56.350Z,101334.22
2023-03-16T23:53:25.620Z,101338.56
2023-03-16T23:55:54.700Z,101334.25
2023-03-16T23:58:24.954Z,101331.66
